Time;durP1;ratioP1;P1;durP2;ratioP2;P2;SDS_P1;SDS_P2;PMS_P1;PMS_P2;Temp;Humidity;BMP_temperature;BMP_pressure;BME280_temperature;BME280_humidity;BME280_pressure;Samples;Min_cycle;Max_cycle;Signal;HPM_P1;HPM_P2
2021/05/18 00:00:50;;;;;;;7.05;2.30;;;13.70;67.60;;;;;;5071084;28;20039;-63
2021/05/18 00:03:18;;;;;;;10.63;4.95;;;13.80;67.60;;;;;;5071586;28;20027;-69
2021/05/18 00:05:54;;;;;;;5.25;2.80;;;14.00;66.80;;;;;;5072229;28;20013;-69
2021/05/18 00:08:24;;;;;;;4.88;2.60;;;14.10;64.40;;;;;;5075940;28;20035;-70
2021/05/18 00:13:44;;;;;;;4.15;1.95;;;14.40;63.10;;;;;;5071445;28;20299;-72
2021/05/18 00:16:12;;;;;;;4.47;2.30;;;14.60;65.30;;;;;;5071242;28;20074;-63
2021/05/18 00:18:40;;;;;;;3.00;1.70;;;14.70;66.40;;;;;;5071334;28;20043;-65
2021/05/18 00:21:08;;;;;;;2.80;1.70;;;14.90;63.90;;;;;;5071421;28;20348;-71
2021/05/18 00:23:37;;;;;;;3.22;1.85;;;15.10;63.30;;;;;;5071590;28;20109;-73
2021/05/18 00:26:08;;;;;;;4.60;2.38;;;15.30;63.20;;;;;;5071875;28;20388;-71
2021/05/18 00:28:35;;;;;;;5.80;1.40;;;15.40;62.60;;;;;;5071068;28;20479;-65
2021/05/18 00:31:03;;;;;;;3.22;2.08;;;15.60;60.90;;;;;;5068259;28;20024;-71
2021/05/18 00:33:32;;;;;;;3.78;1.92;;;15.60;60.10;;;;;;5068538;28;20511;-64
2021/05/18 00:36:01;;;;;;;2.58;1.67;;;15.70;60.40;;;;;;5070227;28;20024;-72
2021/05/18 00:38:28;;;;;;;2.60;1.65;;;15.70;59.20;;;;;;5070722;28;20484;-73
2021/05/18 00:40:56;;;;;;;3.53;2.53;;;15.80;60.50;;;;;;5070446;28;20103;-72
2021/05/18 00:43:23;;;;;;;2.45;1.90;;;15.90;59.60;;;;;;5068297;28;20021;-69
2021/05/18 00:45:51;;;;;;;2.10;1.60;;;16.20;59.50;;;;;;5069790;28;20194;-72
2021/05/18 00:48:21;;;;;;;4.45;2.13;;;16.40;58.80;;;;;;5070091;28;20021;-68
2021/05/18 00:50:53;;;;;;;4.15;2.70;;;16.50;58.30;;;;;;5070813;28;20021;-69
2021/05/18 00:53:21;;;;;;;5.35;3.00;;;16.60;57.50;;;;;;5071258;28;20031;-73
2021/05/18 00:55:53;;;;;;;5.70;2.63;;;16.70;58.10;;;;;;5069746;28;20479;-75
2021/05/18 00:58:27;;;;;;;4.65;2.75;;;16.90;57.60;;;;;;5069366;28;20572;-71
2021/05/18 01:01:20;;;;;;;5.03;2.05;;;17.00;56.40;;;;;;5070020;28;20021;-72
2021/05/18 01:03:48;;;;;;;;;;;17.20;55.60;;;;;;5069866;28;20020;-64
2021/05/18 01:06:30;;;;;;;5.03;2.10;;;17.40;55.80;;;;;;5070107;28;19904;-63
2021/05/18 01:09:12;;;;;;;5.00;1.97;;;17.60;54.60;;;;;;5069628;28;20020;-64
2021/05/18 01:11:42;;;;;;;4.85;2.50;;;17.70;55.10;;;;;;5070494;28;20016;-64
2021/05/18 01:14:15;;;;;;;4.72;1.85;;;17.80;54.20;;;;;;5069874;28;20020;-63
2021/05/18 01:16:49;;;;;;;5.15;2.67;;;17.90;55.60;;;;;;5069296;28;20025;-73
2021/05/18 01:19:20;;;;;;;3.70;2.25;;;18.10;54.50;;;;;;5069470;28;20029;-74
2021/05/18 01:21:47;;;;;;;4.43;2.15;;;18.10;53.10;;;;;;5068023;28;20087;-63
2021/05/18 01:24:17;;;;;;;9.30;2.70;;;18.30;53.80;;;;;;5070044;28;20023;-63
2021/05/18 01:26:46;;;;;;;7.53;3.00;;;18.50;52.90;;;;;;5067622;28;20021;-63
2021/05/18 01:29:14;;;;;;;4.43;2.08;;;18.70;52.00;;;;;;5069479;28;20024;-73
2021/05/18 01:31:45;;;;;;;7.47;1.85;;;18.80;52.10;;;;;;5069598;28;20131;-70
2021/05/18 01:34:12;;;;;;;8.05;2.15;;;19.00;52.10;;;;;;5070105;28;20491;-73
2021/05/18 01:36:40;;;;;;;8.45;2.75;;;19.20;50.70;;;;;;5069563;28;20131;-64
2021/05/18 01:44:36;;;;;;;6.30;2.88;;;19.40;48.60;;;;;;5070852;28;20500;-71
2021/05/18 01:47:07;;;;;;;3.58;1.70;;;19.40;49.50;;;;;;5066532;28;20024;-62
2021/05/18 01:49:34;;;;;;;2.00;1.40;;;19.20;49.00;;;;;;5070876;28;20544;-63
2021/05/18 01:52:03;;;;;;;4.38;2.50;;;19.20;49.30;;;;;;5069098;28;20024;-72
2021/05/18 01:54:34;;;;;;;6.70;3.35;;;19.30;48.60;;;;;;5068856;28;20024;-72
2021/05/18 01:59:48;;;;;;;4.10;1.73;;;19.50;46.40;;;;;;5066082;28;20590;-63
2021/05/18 02:02:16;;;;;;;2.80;1.83;;;19.70;45.90;;;;;;5068190;28;20096;-64
2021/05/18 02:04:49;;;;;;;3.38;1.90;;;19.70;45.60;;;;;;5068287;28;20021;-70
2021/05/18 02:07:20;;;;;;;3.08;1.60;;;19.80;46.80;;;;;;5069013;28;20074;-72
2021/05/18 02:09:48;;;;;;;3.78;1.40;;;19.80;48.10;;;;;;5066508;28;20051;-63
2021/05/18 02:12:15;;;;;;;3.13;1.70;;;19.80;46.90;;;;;;5067952;28;20028;-63
2021/05/18 02:14:45;;;;;;;2.67;1.55;;;19.90;46.50;;;;;;5068166;28;20024;-64
2021/05/18 02:25:24;;;;;;;5.10;2.65;;;20.40;47.00;;;;;;5029048;28;20105;-71
2021/05/18 02:27:53;;;;;;;6.13;2.30;;;20.40;47.30;;;;;;5028444;28;20477;-65
2021/05/18 02:30:23;;;;;;;5.00;2.40;;;20.30;45.70;;;;;;5028557;28;20113;-73
2021/05/18 02:32:53;;;;;;;4.78;2.47;;;20.30;47.20;;;;;;5027748;28;20056;-63
2021/05/18 02:35:21;;;;;;;4.05;2.25;;;20.40;47.00;;;;;;5028261;28;20018;-70
2021/05/18 02:37:49;;;;;;;2.88;1.42;;;20.50;47.10;;;;;;5029023;28;20014;-63
2021/05/18 02:40:23;;;;;;;2.38;1.60;;;20.50;45.60;;;;;;5028898;28;20049;-73
2021/05/18 02:42:52;;;;;;;2.03;1.80;;;20.50;46.30;;;;;;5027137;28;20017;-73
2021/05/18 02:45:34;;;;;;;3.28;1.85;;;20.60;46.40;;;;;;5028780;28;20021;-75
2021/05/18 02:50:47;;;;;;;2.92;1.98;;;20.80;45.80;;;;;;5027967;28;20027;-71
2021/05/18 02:53:14;;;;;;;3.80;2.15;;;20.70;46.60;;;;;;5028516;28;20014;-64
2021/05/18 02:56:00;;;;;;;5.93;1.90;;;20.70;45.30;;;;;;5026485;28;20036;-71
2021/05/18 02:58:31;;;;;;;3.53;2.03;;;20.50;45.80;;;;;;5025894;28;20017;-63
2021/05/18 03:00:58;;;;;;;7.13;2.40;;;20.60;46.70;;;;;;5026956;28;20025;-73
2021/05/18 03:03:25;;;;;;;2.22;1.80;;;20.60;45.90;;;;;;5028965;28;20261;-72
2021/05/18 03:05:53;;;;;;;5.88;2.20;;;20.60;45.40;;;;;;5032794;28;20079;-72
2021/05/18 03:08:20;;;;;;;4.20;2.20;;;20.80;45.30;;;;;;5031599;28;20024;-72
2021/05/18 03:10:48;;;;;;;3.65;2.50;;;20.80;45.60;;;;;;5030495;28;20060;-63
2021/05/18 03:13:16;;;;;;;4.10;2.10;;;20.80;46.10;;;;;;5028929;28;20032;-63
2021/05/18 03:15:43;;;;;;;3.13;2.20;;;20.70;46.20;;;;;;5032199;28;20401;-73
2021/05/18 03:18:11;;;;;;;4.20;1.83;;;20.70;45.90;;;;;;5046605;28;20394;-71
2021/05/18 03:20:41;;;;;;;3.78;2.13;;;20.70;46.10;;;;;;5031913;28;20037;-71
2021/05/18 03:23:11;;;;;;;4.32;2.13;;;20.80;46.30;;;;;;5030340;28;20064;-71
2021/05/18 03:25:42;;;;;;;3.78;2.05;;;20.90;45.70;;;;;;5031857;28;20100;-63
2021/05/18 03:28:09;;;;;;;3.22;1.90;;;21.00;44.70;;;;;;5029912;28;20029;-65
2021/05/18 03:35:52;;;;;;;3.00;1.80;;;21.20;43.70;;;;;;5031121;28;20063;-65
2021/05/18 03:38:29;;;;;;;2.55;1.67;;;21.10;45.00;;;;;;5031163;28;20463;-64
2021/05/18 03:41:01;;;;;;;3.55;1.83;;;21.00;44.70;;;;;;5031709;28;20326;-69
2021/05/18 04:11:21;;;;;;;1.25;0.90;;;21.10;43.00;;;;;;5030626;28;20095;-70
2021/05/18 04:19:04;;;;;;;1.65;1.00;;;21.00;42.20;;;;;;5028627;28;20056;-70
2021/05/18 05:01:48;;;;;;;0.82;0.75;;;20.90;43.80;;;;;;5029789;28;20436;-61
2021/05/18 05:06:59;;;;;;;1.23;0.90;;;20.90;44.40;;;;;;5030210;28;20413;-61
2021/05/18 05:09:29;;;;;;;1.63;0.70;;;21.00;44.10;;;;;;5026187;28;20028;-70
2021/05/18 05:15:02;;;;;;;1.63;0.88;;;21.30;43.30;;;;;;5025173;28;20033;-71
2021/05/18 05:17:29;;;;;;;1.48;0.80;;;21.40;43.60;;;;;;5025822;28;20048;-63
2021/05/18 05:19:59;;;;;;;1.58;0.70;;;21.40;42.60;;;;;;5028234;28;20445;-61
2021/05/18 05:22:28;;;;;;;2.63;0.88;;;21.40;42.20;;;;;;5028899;28;20022;-70
2021/05/18 05:24:56;;;;;;;1.42;0.80;;;21.50;42.40;;;;;;5029422;28;20116;-71
2021/05/18 05:27:23;;;;;;;1.42;0.90;;;21.60;40.50;;;;;;5029308;28;20072;-63
2021/05/18 05:29:50;;;;;;;2.75;0.88;;;21.60;41.00;;;;;;5028633;28;20425;-62
2021/05/18 05:32:18;;;;;;;2.58;0.90;;;21.60;40.80;;;;;;5026296;28;20033;-65
2021/05/18 05:34:45;;;;;;;1.92;0.63;;;21.70;41.30;;;;;;5028693;28;20026;-62
2021/05/18 05:37:12;;;;;;;0.63;0.60;;;21.90;40.40;;;;;;5030077;28;20124;-59
2021/05/18 05:39:40;;;;;;;0.60;0.40;;;21.90;39.90;;;;;;5029272;28;20029;-67
2021/05/18 05:42:07;;;;;;;1.95;0.60;;;21.80;39.50;;;;;;5029006;28;20017;-60
2021/05/18 05:44:35;;;;;;;0.82;0.65;;;21.70;40.00;;;;;;5028649;28;20039;-61
2021/05/18 05:47:05;;;;;;;3.88;0.70;;;21.80;40.10;;;;;;5027203;28;20049;-65
2021/05/18 05:49:32;;;;;;;3.63;0.50;;;21.80;39.50;;;;;;5025495;28;20034;-61
2021/05/18 05:52:00;;;;;;;1.33;0.60;;;21.50;40.20;;;;;;5026150;28;20107;-63
2021/05/18 05:54:27;;;;;;;0.90;0.60;;;21.10;41.00;;;;;;5025376;28;20021;-70
2021/05/18 05:56:54;;;;;;;2.53;0.70;;;20.60;41.20;;;;;;5026990;28;20037;-61
2021/05/18 05:59:22;;;;;;;2.17;0.75;;;20.20;42.40;;;;;;5025261;28;20022;-68
2021/05/18 06:01:49;;;;;;;2.40;1.13;;;19.80;42.90;;;;;;5028919;28;20013;-65
2021/05/18 06:04:17;;;;;;;0.57;0.50;;;19.60;44.30;;;;;;5027278;28;20490;-64
2021/05/18 06:06:44;;;;;;;1.35;0.57;;;19.30;44.80;;;;;;5028929;28;20428;-71
2021/05/18 06:09:12;;;;;;;1.40;0.77;;;19.10;45.40;;;;;;4333808;28;10022459;-73
2021/05/18 06:11:52;;;;;;;3.17;0.80;;;18.90;45.80;;;;;;5023732;28;20561;-72
2021/05/18 06:49:58;;;;;;;2.47;1.00;;;18.80;47.70;;;;;;5025594;28;20033;-70
2021/05/18 06:52:26;;;;;;;3.42;1.10;;;18.40;49.20;;;;;;5025770;28;20087;-72
2021/05/18 06:54:53;;;;;;;3.25;0.90;;;17.90;50.60;;;;;;5025399;28;20625;-62
2021/05/18 06:57:20;;;;;;;1.73;0.80;;;17.60;51.20;;;;;;5024612;28;20072;-68
2021/05/18 07:02:33;;;;;;;2.28;0.80;;;16.90;52.60;;;;;;5024581;28;20393;-69
2021/05/18 07:05:00;;;;;;;2.85;0.80;;;16.60;53.50;;;;;;5026536;28;20605;-62
2021/05/18 07:07:32;;;;;;;3.00;1.05;;;16.40;54.50;;;;;;5026164;28;20104;-62
2021/05/18 07:09:59;;;;;;;1.83;1.17;;;16.10;55.80;;;;;;5025392;28;20025;-70
2021/05/18 07:12:26;;;;;;;2.05;0.80;;;15.90;55.90;;;;;;5025023;28;20032;-68
2021/05/18 07:14:58;;;;;;;2.85;1.60;;;15.80;56.70;;;;;;5025745;28;20033;-62
2021/05/18 07:17:25;;;;;;;2.30;1.25;;;15.70;57.80;;;;;;5025157;28;20045;-68
2021/05/18 07:19:52;;;;;;;1.88;1.25;;;15.50;58.00;;;;;;5027211;28;20052;-62
2021/05/18 07:22:19;;;;;;;3.42;1.40;;;15.40;58.30;;;;;;5023425;28;20024;-63
2021/05/18 07:24:47;;;;;;;3.97;1.33;;;15.20;59.10;;;;;;5025008;28;20536;-63
2021/05/18 07:27:14;;;;;;;2.35;1.40;;;15.10;59.00;;;;;;5032453;28;20029;-67
2021/05/18 07:29:42;;;;;;;6.32;2.22;;;15.10;59.40;;;;;;5025961;28;20017;-61
2021/05/18 07:32:09;;;;;;;2.97;1.95;;;15.00;59.70;;;;;;5019891;28;20128;-62
2021/05/18 07:34:37;;;;;;;3.53;1.60;;;14.90;59.70;;;;;;5024691;28;20048;-63
2021/05/18 07:37:04;;;;;;;7.22;2.92;;;14.80;59.50;;;;;;5024859;28;20057;-67
2021/05/18 07:39:32;;;;;;;2.92;1.50;;;14.70;59.90;;;;;;5025496;28;20025;-68
2021/05/18 07:41:59;;;;;;;3.80;2.45;;;14.50;61.20;;;;;;5024127;28;20028;-61
2021/05/18 07:44:41;;;;;;;4.85;2.00;;;14.50;61.30;;;;;;5027888;28;20024;-62
2021/05/18 07:47:11;;;;;;;10.73;4.53;;;14.40;61.80;;;;;;5015877;28;20238;-63
2021/05/18 07:49:43;;;;;;;7.63;5.50;;;14.30;62.30;;;;;;5026640;28;20022;-63
2021/05/18 08:05:51;;;;;;;5.30;2.20;;;14.10;63.20;;;;;;5028232;28;20025;-70
2021/05/18 08:08:18;;;;;;;4.32;2.30;;;14.10;64.50;;;;;;5028189;28;20037;-70
2021/05/18 08:13:19;;;;;;;3.50;1.90;;;14.00;66.50;;;;;;5024337;28;20114;-70
2021/05/18 08:19:05;;;;;;;4.85;2.00;;;13.90;68.20;;;;;;4998188;28;20037;-73
2021/05/18 10:35:35;;;;;;;7.50;4.43;;;10.60;85.50;;;;;;5020124;28;20029;-73
2021/05/18 10:38:06;;;;;;;7.45;4.93;;;10.50;86.30;;;;;;5020991;28;20536;-74
2021/05/18 10:40:43;;;;;;;6.85;5.00;;;10.40;86.60;;;;;;5021209;28;20040;-72
2021/05/18 10:43:29;;;;;;;7.75;4.85;;;10.40;87.10;;;;;;5018333;28;20033;-64
2021/05/18 10:45:58;;;;;;;7.97;5.65;;;10.30;86.70;;;;;;5020298;28;20574;-74
2021/05/18 10:48:27;;;;;;;8.88;3.88;;;10.30;86.70;;;;;;5018027;28;20075;-65
2021/05/18 10:50:54;;;;;;;13.30;5.72;;;10.30;87.50;;;;;;5020344;28;20041;-67
2021/05/18 10:53:26;;;;;;;7.10;4.63;;;10.30;87.50;;;;;;5019426;28;20440;-71
2021/05/18 10:56:13;;;;;;;9.30;5.35;;;10.20;87.50;;;;;;5020340;28;20041;-65
2021/05/18 10:58:40;;;;;;;11.55;6.32;;;10.20;89.20;;;;;;4671303;28;10000377;-73
2021/05/18 11:01:07;;;;;;;9.20;4.95;;;10.30;88.40;;;;;;5016747;28;20603;-65
2021/05/18 11:03:36;;;;;;;7.43;4.38;;;10.20;87.80;;;;;;5018135;28;20044;-63
2021/05/18 11:06:08;;;;;;;10.05;7.43;;;10.10;87.30;;;;;;5016688;28;20527;-65
2021/05/18 11:08:36;;;;;;;7.72;4.47;;;10.10;87.50;;;;;;5016701;28;20025;-65
2021/05/18 11:11:07;;;;;;;7.35;5.10;;;10.00;87.60;;;;;;5015034;28;20371;-73
2021/05/18 11:13:34;;;;;;;9.68;5.15;;;9.90;88.20;;;;;;5017365;28;20525;-74
2021/05/18 11:16:01;;;;;;;6.38;4.30;;;9.90;88.60;;;;;;5016252;28;20037;-64
2021/05/18 11:18:32;;;;;;;7.93;5.07;;;9.90;88.60;;;;;;5013811;28;20510;-74
2021/05/18 11:21:11;;;;;;;9.35;4.82;;;9.90;88.70;;;;;;5012571;28;20061;-74
2021/05/18 11:23:39;;;;;;;8.38;5.00;;;9.80;88.40;;;;;;5016600;28;20025;-64
2021/05/18 11:26:12;;;;;;;6.75;4.47;;;9.80;88.60;;;;;;5019370;28;20525;-65
2021/05/18 11:28:49;;;;;;;7.55;4.63;;;9.80;89.20;;;;;;5021996;28;20378;-62
2021/05/18 11:31:23;;;;;;;9.57;4.68;;;9.70;89.00;;;;;;5024255;28;20478;-73
2021/05/18 11:34:00;;;;;;;10.93;5.03;;;9.60;89.20;;;;;;5023187;28;20033;-63
2021/05/18 11:36:38;;;;;;;10.63;4.85;;;9.60;89.30;;;;;;5020827;28;20029;-64
2021/05/18 11:39:14;;;;;;;10.13;5.03;;;9.60;89.80;;;;;;5024055;28;20553;-66
2021/05/18 11:41:45;;;;;;;7.18;4.50;;;9.50;90.10;;;;;;5024585;28;20087;-73
2021/05/18 11:44:14;;;;;;;10.43;5.50;;;9.50;90.10;;;;;;5022982;28;20456;-74
2021/05/18 11:46:51;;;;;;;11.02;5.55;;;9.50;90.40;;;;;;5022823;28;20025;-64
2021/05/18 11:49:21;;;;;;;19.92;10.48;;;9.50;90.50;;;;;;5023542;28;20021;-65
2021/05/18 11:51:54;;;;;;;22.85;11.38;;;9.50;90.50;;;;;;5024050;28;20021;-74
2021/05/18 11:54:27;;;;;;;11.07;5.45;;;9.50;90.30;;;;;;5025284;28;20036;-73
2021/05/18 11:56:57;;;;;;;11.43;5.43;;;9.40;90.30;;;;;;5025915;28;20029;-65
2021/05/18 11:59:26;;;;;;;13.25;6.50;;;9.30;90.70;;;;;;5026604;28;20025;-64
2021/05/18 12:02:04;;;;;;;8.38;4.97;;;9.30;90.70;;;;;;5026539;28;20117;-65
2021/05/18 12:04:36;;;;;;;7.43;4.72;;;9.30;90.70;;;;;;5025744;28;20028;-72
2021/05/18 12:07:08;;;;;;;7.35;5.05;;;9.30;90.70;;;;;;5027132;28;20667;-63
2021/05/18 12:09:38;;;;;;;9.32;5.20;;;9.30;90.60;;;;;;5026569;28;20121;-74
2021/05/18 12:12:08;;;;;;;8.48;5.00;;;9.20;90.80;;;;;;5025433;28;20041;-64
2021/05/18 12:14:49;;;;;;;9.20;5.10;;;9.20;91.10;;;;;;5026928;28;20026;-65
2021/05/18 12:17:26;;;;;;;8.70;4.88;;;9.20;91.10;;;;;;5025411;28;20029;-74
2021/05/18 12:19:54;;;;;;;7.80;4.00;;;9.20;91.10;;;;;;5026184;28;20513;-64
2021/05/18 12:22:21;;;;;;;8.20;4.47;;;9.20;91.10;;;;;;5027110;28;20018;-72
2021/05/18 12:24:49;;;;;;;6.50;4.38;;;9.10;91.30;;;;;;5026241;28;20116;-74
2021/05/18 12:27:16;;;;;;;6.63;4.15;;;9.10;91.20;;;;;;5026412;28;20029;-72
2021/05/18 12:29:46;;;;;;;8.38;4.95;;;9.00;91.30;;;;;;5025779;28;20033;-71
2021/05/18 12:32:37;;;;;;;7.88;3.92;;;9.00;91.60;;;;;;5026186;28;20316;-73
2021/05/18 12:35:04;;;;;;;8.57;3.90;;;9.00;91.50;;;;;;5025563;28;20037;-73
2021/05/18 12:37:54;;;;;;;5.78;4.05;;;9.10;91.60;;;;;;5025193;28;20060;-64
2021/05/18 12:40:27;;;;;;;6.88;3.80;;;9.00;91.70;;;;;;5026162;28;20029;-64
2021/05/18 12:43:07;;;;;;;7.18;3.58;;;9.10;91.60;;;;;;5025911;28;20449;-72
2021/05/18 12:45:34;;;;;;;4.85;3.50;;;9.10;91.80;;;;;;5023747;28;20116;-64
2021/05/18 12:48:02;;;;;;;10.60;4.80;;;9.30;91.70;;;;;;5026035;28;20033;-72
2021/05/18 12:50:49;;;;;;;6.20;4.05;;;9.40;91.50;;;;;;5026436;28;20083;-72
2021/05/18 12:53:34;;;;;;;6.32;4.85;;;9.30;91.30;;;;;;5025851;28;20029;-65
2021/05/18 12:56:02;;;;;;;10.43;5.35;;;9.30;91.70;;;;;;5026402;28;20530;-73
2021/05/18 12:58:35;;;;;;;12.10;5.07;;;9.30;90.70;;;;;;5025928;28;20782;-72
2021/05/18 13:01:17;;;;;;;7.80;5.07;;;9.20;90.90;;;;;;5021784;28;20467;-64
2021/05/18 13:03:45;;;;;;;11.63;5.93;;;9.00;91.30;;;;;;5023281;28;20399;-64
2021/05/18 13:06:13;;;;;;;10.07;4.72;;;8.90;91.30;;;;;;5025835;28;20512;-72
2021/05/18 13:08:45;;;;;;;7.35;4.75;;;8.80;91.40;;;;;;5025072;28;20291;-64
2021/05/18 13:13:55;;;;;;;9.57;5.88;;;8.70;91.60;;;;;;5024236;28;20488;-65
2021/05/18 13:16:25;;;;;;;13.00;5.32;;;8.60;91.90;;;;;;5025729;28;20358;-73
2021/05/18 13:19:13;;;;;;;7.60;4.97;;;8.50;92.00;;;;;;5024070;28;20084;-64
2021/05/18 13:21:56;;;;;;;10.50;5.95;;;8.50;92.00;;;;;;5022781;28;20029;-64
2021/05/18 13:27:10;;;;;;;13.32;6.38;;;8.40;92.50;;;;;;5026283;28;20091;-65
2021/05/18 13:29:37;;;;;;;12.82;5.43;;;8.50;92.40;;;;;;5025589;28;20037;-64
2021/05/18 13:32:05;;;;;;;14.02;6.40;;;8.40;92.50;;;;;;5023798;28;20613;-71
2021/05/18 13:34:32;;;;;;;13.55;6.75;;;8.30;92.70;;;;;;5025374;28;20374;-64
2021/05/18 13:37:00;;;;;;;13.80;6.05;;;8.30;93.00;;;;;;5022949;28;20096;-71
2021/05/18 13:39:27;;;;;;;14.05;5.78;;;8.20;93.00;;;;;;5024847;28;20517;-72
2021/05/18 13:41:54;;;;;;;24.50;7.90;;;8.20;92.90;;;;;;5025755;28;20116;-63
2021/05/18 13:44:22;;;;;;;27.38;8.40;;;8.20;93.10;;;;;;5024835;28;20026;-72
2021/05/18 13:46:52;;;;;;;21.77;8.48;;;8.20;93.20;;;;;;5025276;28;20026;-71
2021/05/18 13:49:22;;;;;;;40.30;11.13;;;8.20;92.70;;;;;;5023225;28;20021;-63
2021/05/18 13:51:52;;;;;;;35.15;9.82;;;8.20;93.10;;;;;;5025006;28;20098;-64
2021/05/18 13:54:19;;;;;;;54.28;12.30;;;8.10;93.10;;;;;;5024190;28;20029;-63
2021/05/18 13:56:49;;;;;;;45.55;11.68;;;8.20;92.80;;;;;;5023092;28;20021;-73
2021/05/18 13:59:17;;;;;;;44.72;12.65;;;8.30;92.60;;;;;;5022604;28;20056;-64
2021/05/18 14:01:44;;;;;;;36.67;12.55;;;8.30;92.80;;;;;;5017408;28;20075;-64
2021/05/18 14:04:12;;;;;;;42.30;12.15;;;8.30;92.50;;;;;;5017309;28;20033;-63
2021/05/18 14:09:51;;;;;;;36.85;12.90;;;8.40;92.20;;;;;;4986843;28;20415;-72
2021/05/18 14:12:19;;;;;;;36.42;10.98;;;8.40;92.10;;;;;;5021206;28;20470;-72
2021/05/18 14:14:46;;;;;;;36.47;10.85;;;8.30;92.50;;;;;;5025141;28;20635;-64
2021/05/18 14:17:13;;;;;;;40.55;12.50;;;8.30;92.40;;;;;;5024401;28;20049;-64
2021/05/18 14:19:40;;;;;;;33.20;11.23;;;8.20;92.50;;;;;;5020066;22;20069;-73
2021/05/18 14:22:08;;;;;;;36.78;10.25;;;8.20;92.60;;;;;;5005741;28;20026;-63
2021/05/18 14:24:40;;;;;;;32.22;11.35;;;8.30;92.60;;;;;;5005989;28;20034;-73
2021/05/18 14:27:10;;;;;;;33.70;10.45;;;8.20;92.70;;;;;;4999719;28;20092;-64
2021/05/18 14:29:37;;;;;;;32.75;12.18;;;8.10;93.00;;;;;;4998787;28;20479;-72
2021/05/18 14:32:05;;;;;;;32.83;11.15;;;8.00;93.30;;;;;;4996689;28;20045;-64
2021/05/18 14:34:32;;;;;;;39.42;11.20;;;7.90;93.40;;;;;;5006248;28;20103;-73
2021/05/18 14:36:59;;;;;;;33.97;11.85;;;8.00;93.20;;;;;;5005876;28;20049;-63
2021/05/18 14:39:47;;;;;;;40.50;11.63;;;8.00;92.80;;;;;;5003318;28;20763;-72
2021/05/18 14:44:59;;;;;;;31.13;10.35;;;7.90;93.20;;;;;;5002446;28;20116;-64
2021/05/18 14:47:31;;;;;;;26.67;9.82;;;7.80;93.40;;;;;;5001602;28;20129;-71
2021/05/18 14:55:29;;;;;;;26.73;10.82;;;7.70;93.30;;;;;;5001279;28;20037;-64
2021/05/18 14:57:59;;;;;;;27.05;10.70;;;7.70;93.30;;;;;;5002925;28;20080;-73
2021/05/18 15:00:28;;;;;;;27.67;9.48;;;7.80;93.10;;;;;;5005254;28;20100;-66
2021/05/18 15:02:56;;;;;;;24.98;9.25;;;7.80;93.00;;;;;;5008132;28;20033;-67
2021/05/18 15:05:25;;;;;;;27.65;10.60;;;7.80;93.10;;;;;;5007882;28;20018;-64
2021/05/18 15:07:53;;;;;;;18.42;8.73;;;7.80;93.10;;;;;;5008683;28;20052;-72
2021/05/18 15:10:20;;;;;;;18.65;8.35;;;7.80;93.00;;;;;;5008524;28;20028;-76
2021/05/18 15:12:47;;;;;;;20.60;9.20;;;7.80;93.30;;;;;;5005113;28;20026;-65
2021/05/18 15:15:15;;;;;;;21.30;8.45;;;7.80;93.20;;;;;;5008919;28;20485;-76
2021/05/18 15:17:43;;;;;;;16.17;9.05;;;7.80;93.00;;;;;;4997766;28;20088;-76
2021/05/18 15:20:11;;;;;;;15.63;9.63;;;7.70;93.20;;;;;;5018905;28;20480;-74
2021/05/18 15:22:39;;;;;;;19.23;9.00;;;7.80;93.30;;;;;;5008293;28;20040;-77
2021/05/18 15:25:08;;;;;;;15.23;8.77;;;7.80;93.00;;;;;;5001804;28;20065;-66
2021/05/18 15:27:36;;;;;;;13.70;8.05;;;7.70;93.00;;;;;;5005100;28;20578;-75
2021/05/18 15:30:06;;;;;;;13.95;8.18;;;7.60;93.50;;;;;;5012114;28;20157;-71
2021/05/18 15:32:33;;;;;;;13.15;7.90;;;7.50;93.60;;;;;;5008513;28;20021;-65
2021/05/18 15:35:01;;;;;;;13.50;7.85;;;7.50;93.60;;;;;;5007158;28;20041;-71
2021/05/18 15:37:28;;;;;;;12.23;7.15;;;7.60;93.60;;;;;;5005959;28;20033;-71
2021/05/18 15:39:55;;;;;;;13.13;8.35;;;7.60;93.50;;;;;;5006160;28;20037;-66
2021/05/18 15:42:23;;;;;;;16.88;7.45;;;7.60;93.30;;;;;;5005040;28;20482;-70
2021/05/18 15:44:50;;;;;;;12.35;7.90;;;7.60;93.40;;;;;;5006210;28;20426;-70
2021/05/18 15:47:18;;;;;;;15.75;8.05;;;7.50;93.70;;;;;;5010904;28;20096;-65
2021/05/18 15:49:45;;;;;;;13.63;7.85;;;7.40;93.90;;;;;;5011096;28;20342;-64
2021/05/18 15:52:12;;;;;;;12.50;8.05;;;7.30;94.20;;;;;;5005435;28;20125;-76
2021/05/18 15:54:39;;;;;;;14.90;9.15;;;7.40;93.90;;;;;;5008457;28;20060;-67
2021/05/18 15:57:10;;;;;;;15.90;7.70;;;7.40;93.90;;;;;;5005104;28;20084;-71
2021/05/18 15:59:37;;;;;;;11.50;8.85;;;7.40;93.90;;;;;;5006329;28;20414;-75
2021/05/18 16:02:08;;;;;;;11.35;8.38;;;7.30;94.10;;;;;;5018396;28;20026;-66
2021/05/18 16:04:46;;;;;;;9.77;6.80;;;7.30;94.10;;;;;;5001056;28;20025;-73
2021/05/18 16:07:18;;;;;;;11.05;7.03;;;7.40;93.70;;;;;;5009845;28;20121;-67
2021/05/18 16:09:48;;;;;;;10.02;7.00;;;7.50;93.50;;;;;;5002180;28;20394;-66
2021/05/18 16:12:15;;;;;;;10.48;7.20;;;7.60;93.30;;;;;;5008225;28;20121;-66
2021/05/18 16:14:48;;;;;;;15.40;7.13;;;7.60;93.20;;;;;;5010826;28;20378;-66
2021/05/18 16:17:20;;;;;;;12.93;7.32;;;7.50;93.20;;;;;;5010515;28;20509;-67
2021/05/18 16:19:48;;;;;;;9.23;6.95;;;7.40;93.60;;;;;;5008575;28;20052;-67
2021/05/18 16:22:16;;;;;;;10.45;7.30;;;7.40;93.80;;;;;;5010539;28;20029;-65
2021/05/18 16:24:44;;;;;;;10.88;7.22;;;7.30;93.70;;;;;;5009432;28;20029;-65
2021/05/18 16:27:15;;;;;;;9.02;6.97;;;7.20;93.90;;;;;;5005357;28;20041;-74
2021/05/18 16:29:44;;;;;;;11.98;7.07;;;7.10;94.10;;;;;;5004429;28;20040;-71
2021/05/18 16:32:12;;;;;;;10.35;6.82;;;7.00;94.20;;;;;;5009900;28;20045;-74
2021/05/18 16:34:39;;;;;;;8.88;6.82;;;6.90;94.20;;;;;;4999150;28;20092;-71
2021/05/18 16:37:07;;;;;;;9.63;7.18;;;6.80;94.30;;;;;;5008147;28;20033;-65
2021/05/18 16:39:34;;;;;;;10.57;7.80;;;6.70;94.40;;;;;;5009707;28;20053;-73
2021/05/18 16:42:02;;;;;;;11.55;7.97;;;6.70;94.50;;;;;;5010141;28;20573;-69
2021/05/18 16:44:30;;;;;;;9.55;7.50;;;6.60;94.70;;;;;;5009969;28;20083;-71
2021/05/18 16:46:57;;;;;;;17.23;9.10;;;6.60;94.70;;;;;;5009773;28;20018;-71
2021/05/18 16:49:24;;;;;;;15.40;10.70;;;6.50;94.60;;;;;;5008993;28;20079;-65
2021/05/18 16:51:52;;;;;;;15.65;11.32;;;6.40;94.80;;;;;;5008696;28;20030;-65
2021/05/18 16:54:19;;;;;;;18.45;10.52;;;6.40;94.80;;;;;;5006753;28;20088;-67
2021/05/18 16:56:49;;;;;;;23.30;10.80;;;6.30;94.80;;;;;;5007876;28;20410;-72
2021/05/18 16:59:16;;;;;;;17.55;10.40;;;6.20;95.00;;;;;;5007787;28;20018;-74
2021/05/18 17:01:43;;;;;;;16.52;8.85;;;6.20;95.00;;;;;;5003360;28;20026;-74
2021/05/18 17:04:11;;;;;;;19.70;8.88;;;6.20;95.20;;;;;;5006980;28;20030;-64
2021/05/18 17:06:38;;;;;;;18.38;8.05;;;6.10;95.10;;;;;;5004758;28;20030;-65
2021/05/18 17:09:07;;;;;;;14.65;9.20;;;6.10;95.10;;;;;;4999621;28;20050;-66
2021/05/18 17:11:36;;;;;;;15.77;9.38;;;6.10;95.20;;;;;;5006684;28;20022;-66
2021/05/18 17:14:03;;;;;;;16.40;9.95;;;6.10;95.20;;;;;;5009838;28;20607;-75
2021/05/18 17:16:31;;;;;;;11.85;8.82;;;6.10;95.20;;;;;;5007378;28;20392;-74
2021/05/18 17:18:58;;;;;;;15.55;8.13;;;6.00;95.20;;;;;;5005354;28;20140;-75
2021/05/18 17:21:29;;;;;;;13.65;9.20;;;6.00;95.20;;;;;;5008994;28;20072;-75
2021/05/18 17:23:59;;;;;;;17.27;9.43;;;5.90;95.40;;;;;;5008658;28;20088;-65
2021/05/18 17:26:27;;;;;;;10.68;7.63;;;5.90;95.40;;;;;;5006038;28;20024;-65
2021/05/18 17:29:04;;;;;;;18.67;9.07;;;5.90;95.30;;;;;;5004993;28;20030;-72
2021/05/18 17:31:31;;;;;;;16.58;9.68;;;5.80;95.30;;;;;;5003051;28;20030;-76
2021/05/18 17:33:59;;;;;;;16.17;9.27;;;5.80;95.30;;;;;;5008077;28;20050;-66
2021/05/18 17:36:32;;;;;;;17.13;9.43;;;5.70;95.50;;;;;;5007125;28;20506;-74
2021/05/18 17:39:03;;;;;;;14.45;9.38;;;5.70;95.60;;;;;;5008413;28;20029;-66
2021/05/18 17:41:30;;;;;;;17.13;9.20;;;5.70;95.50;;;;;;5006878;28;20029;-66
2021/05/18 17:44:01;;;;;;;20.50;11.55;;;5.60;95.50;;;;;;5008434;28;20022;-65
2021/05/18 17:46:33;;;;;;;16.92;10.18;;;5.60;95.60;;;;;;5008188;28;20142;-75
2021/05/18 17:49:01;;;;;;;19.25;11.13;;;5.60;95.70;;;;;;5006411;28;20026;-71
2021/05/18 17:51:35;;;;;;;19.60;11.40;;;5.60;95.70;;;;;;5006911;28;20569;-72
2021/05/18 17:54:06;;;;;;;20.23;10.65;;;5.50;95.70;;;;;;5000919;28;20025;-67
2021/05/18 17:56:33;;;;;;;16.60;9.88;;;5.50;96.00;;;;;;4998735;28;20030;-73
2021/05/18 17:59:04;;;;;;;17.58;10.68;;;5.60;96.00;;;;;;5008684;28;20061;-74
2021/05/18 18:01:34;;;;;;;14.45;9.20;;;5.50;95.80;;;;;;5007681;28;20293;-66
2021/05/18 18:04:06;;;;;;;17.30;9.48;;;5.50;95.90;;;;;;5002221;28;20422;-73
2021/05/18 18:06:34;;;;;;;16.50;9.90;;;5.50;95.90;;;;;;5008332;28;20178;-75
2021/05/18 18:09:04;;;;;;;14.95;10.45;;;5.50;95.90;;;;;;5008244;28;20136;-66
2021/05/18 18:11:39;;;;;;;15.18;9.55;;;5.50;96.10;;;;;;5005200;28;20158;-65
2021/05/18 18:14:09;;;;;;;14.63;9.55;;;5.50;96.00;;;;;;5005627;28;20033;-65
2021/05/18 18:16:43;;;;;;;17.88;9.50;;;5.50;96.00;;;;;;5007083;28;20474;-65